createdAt,value
2019-02-12T00:01:02.505Z,17.90
2019-02-12T00:04:06.384Z,17.67
2019-02-12T00:07:10.211Z,16.57
2019-02-12T00:10:14.111Z,18.83
2019-02-12T00:13:17.999Z,19.90
2019-02-12T00:16:21.851Z,19.37
2019-02-12T00:19:25.734Z,18.60
2019-02-12T00:22:29.574Z,17.57
2019-02-12T00:25:33.577Z,16.23
2019-02-12T00:28:37.435Z,17.53
2019-02-12T00:31:41.376Z,16.83
2019-02-12T00:34:45.204Z,17.73
2019-02-12T00:41:12.101Z,17.77
2019-02-12T00:44:15.984Z,15.70
2019-02-12T00:47:20.160Z,15.50
2019-02-12T00:50:24.094Z,14.30
2019-02-12T00:53:27.975Z,14.10
2019-02-12T00:56:31.874Z,13.27
2019-02-12T00:59:35.796Z,13.07
2019-02-12T01:02:39.669Z,11.93
2019-02-12T01:05:43.575Z,10.70
2019-02-12T01:08:47.456Z,9.13
2019-02-12T01:11:51.274Z,11.10
2019-02-12T01:14:55.139Z,9.87
2019-02-12T01:17:59.075Z,9.50
2019-02-12T01:21:02.955Z,9.67
2019-02-12T01:24:06.849Z,9.77
2019-02-12T01:27:10.755Z,9.20
2019-02-12T01:30:16.959Z,9.80
2019-02-12T01:33:21.087Z,9.87
2019-02-12T01:36:24.970Z,10.10
2019-02-12T01:39:28.847Z,11.80
2019-02-12T01:42:32.751Z,11.07
2019-02-12T01:45:36.639Z,12.43
2019-02-12T01:48:40.574Z,10.47
2019-02-12T01:51:44.402Z,11.00
2019-02-12T01:54:48.312Z,10.70
2019-02-12T01:57:52.204Z,8.30
2019-02-12T02:00:56.075Z,9.03
2019-02-12T02:03:59.885Z,10.63
2019-02-12T02:07:03.762Z,11.77
2019-02-12T02:10:10.583Z,14.17
2019-02-12T02:13:14.480Z,14.43
2019-02-12T02:16:18.311Z,14.37
2019-02-12T02:19:22.210Z,10.53
2019-02-12T02:22:26.074Z,12.90
2019-02-12T02:25:29.939Z,12.97
2019-02-12T02:28:33.829Z,11.23
2019-02-12T02:31:37.654Z,12.93
2019-02-12T02:34:41.555Z,12.43
2019-02-12T02:37:45.437Z,13.23
2019-02-12T02:40:49.313Z,11.50
2019-02-12T02:43:53.204Z,13.00
2019-02-12T02:46:57.080Z,12.87
2019-02-12T02:50:03.283Z,12.23
2019-02-12T02:53:06.449Z,12.43
2019-02-12T02:56:10.346Z,12.00
2019-02-12T02:59:14.196Z,12.37
2019-02-12T03:02:18.072Z,11.67
2019-02-12T03:05:22.002Z,11.37
2019-02-12T03:08:25.857Z,9.87
2019-02-12T03:11:29.736Z,10.63
2019-02-12T03:14:33.636Z,11.37
2019-02-12T03:17:37.470Z,11.67
2019-02-12T03:20:41.369Z,9.30
2019-02-12T03:23:45.223Z,8.27
2019-02-12T03:26:49.114Z,10.10
2019-02-12T03:29:52.946Z,10.73
2019-02-12T03:32:58.381Z,10.40
2019-02-12T03:36:02.214Z,9.67
2019-02-12T03:39:06.305Z,9.80
2019-02-12T03:42:10.200Z,9.33
2019-02-12T03:45:14.425Z,7.00
2019-02-12T03:48:18.326Z,7.37
2019-02-12T03:51:22.228Z,7.07
2019-02-12T03:54:26.146Z,6.80
2019-02-12T03:57:29.950Z,6.90
2019-02-12T04:00:33.846Z,4.97
2019-02-12T04:03:38.175Z,4.93
2019-02-12T04:06:42.076Z,5.83
2019-02-12T04:09:45.952Z,6.17
2019-02-12T04:12:49.807Z,4.57
2019-02-12T04:15:53.668Z,5.90
2019-02-12T04:18:57.618Z,5.00
2019-02-12T04:22:01.452Z,4.83
2019-02-12T04:25:05.331Z,5.37
2019-02-12T04:28:09.179Z,4.50
2019-02-12T04:31:13.033Z,5.53
2019-02-12T04:34:16.933Z,4.53
2019-02-12T04:37:20.786Z,5.20
2019-02-12T04:40:25.230Z,5.23
2019-02-12T04:43:29.124Z,5.53
2019-02-12T04:46:32.974Z,6.03
2019-02-12T04:49:36.837Z,5.97
2019-02-12T04:52:40.674Z,5.43
2019-02-12T04:55:44.548Z,5.83
2019-02-12T04:58:48.386Z,5.10
2019-02-12T05:01:52.258Z,4.47
2019-02-12T05:04:56.089Z,5.43
2019-02-12T05:07:59.974Z,3.63
2019-02-12T05:11:05.774Z,4.70
2019-02-12T05:14:09.602Z,4.20
2019-02-12T05:17:13.504Z,4.93
2019-02-12T05:20:17.345Z,4.97
2019-02-12T05:23:21.250Z,6.03
2019-02-12T05:26:25.049Z,6.17
2019-02-12T05:29:28.970Z,6.27
2019-02-12T05:32:32.831Z,6.73
2019-02-12T05:35:36.694Z,5.07
2019-02-12T05:38:40.565Z,5.07
2019-02-12T05:41:44.376Z,5.97
2019-02-12T05:44:48.245Z,5.97
2019-02-12T05:47:52.056Z,5.00
2019-02-12T05:50:55.946Z,4.73
2019-02-12T05:53:59.739Z,5.47
2019-02-12T05:57:03.648Z,6.73
2019-02-12T06:00:17.401Z,3.37
2019-02-12T06:03:21.239Z,5.53
2019-02-12T06:06:25.138Z,3.53
2019-02-12T06:09:28.975Z,5.33
2019-02-12T06:12:32.845Z,4.43
2019-02-12T06:15:36.751Z,5.07
2019-02-12T06:18:40.565Z,5.37
2019-02-12T06:21:44.490Z,4.83
2019-02-12T06:24:48.339Z,5.63
2019-02-12T06:27:52.217Z,5.83
2019-02-12T06:30:56.052Z,5.70
2019-02-12T06:33:59.964Z,4.73
2019-02-12T06:37:03.815Z,5.80
2019-02-12T06:40:11.977Z,5.10
2019-02-12T06:43:16.204Z,6.77
2019-02-12T06:46:20.055Z,7.07
2019-02-12T06:49:23.915Z,7.00
2019-02-12T06:52:27.749Z,8.07
2019-02-12T06:55:31.635Z,9.07
2019-02-12T06:58:35.464Z,8.77
2019-02-12T07:01:39.359Z,9.07
2019-02-12T07:04:43.253Z,9.07
2019-02-12T07:07:50.019Z,9.23
2019-02-12T07:10:56.799Z,8.80
2019-02-12T07:14:20.181Z,9.13
2019-02-12T07:17:32.510Z,7.67
2019-02-12T07:20:42.003Z,8.17
2019-02-12T07:24:03.915Z,8.33
2019-02-12T07:27:16.636Z,8.37
2019-02-12T07:30:32.130Z,9.73
2019-02-12T07:33:56.405Z,10.43
2019-02-12T07:37:11.739Z,11.10
2019-02-12T07:40:21.198Z,14.50
2019-02-12T07:43:43.047Z,14.03
2019-02-12T07:46:55.602Z,16.00
2019-02-12T07:50:23.730Z,14.77
2019-02-12T07:53:39.254Z,12.23
2019-02-12T07:57:08.511Z,9.03
2019-02-12T08:00:29.744Z,8.90
2019-02-12T08:03:48.216Z,8.67
2019-02-12T08:07:10.115Z,8.10
2019-02-12T08:10:25.978Z,8.40
2019-02-12T08:13:50.880Z,8.50
2019-02-12T08:16:57.666Z,9.20
2019-02-12T08:20:29.436Z,10.03
2019-02-12T08:23:41.352Z,11.97
2019-02-12T08:26:59.445Z,12.23
2019-02-12T08:30:12.330Z,9.23
2019-02-12T08:33:31.094Z,11.77
2019-02-12T08:36:49.693Z,10.10
2019-02-12T08:40:11.619Z,8.27
2019-02-12T08:43:33.459Z,10.27
2019-02-12T08:47:13.536Z,10.60
2019-02-12T08:50:36.818Z,10.90
2019-02-12T08:54:16.737Z,10.40
2019-02-12T08:57:38.392Z,9.90
2019-02-12T09:00:47.750Z,10.17
2019-02-12T09:04:23.583Z,11.30
2019-02-12T09:07:33.099Z,11.67
2019-02-12T09:10:48.244Z,12.03
2019-02-12T09:13:55.074Z,11.47
2019-02-12T09:17:07.651Z,9.53
2019-02-12T09:20:26.569Z,10.13
2019-02-12T09:23:59.638Z,9.13
2019-02-12T09:26:59.954Z,10.23
2019-02-12T09:30:21.690Z,9.10
2019-02-12T09:33:43.357Z,9.13
2019-02-12T09:37:26.605Z,9.60
2019-02-12T09:40:36.193Z,8.93
2019-02-12T09:44:00.345Z,8.37
2019-02-12T09:47:16.227Z,9.03
2019-02-12T09:50:31.774Z,8.03
2019-02-12T09:53:41.531Z,7.77
2019-02-12T09:57:02.743Z,8.63
2019-02-12T10:00:30.551Z,9.33
2019-02-12T10:03:52.377Z,7.43
2019-02-12T10:07:08.107Z,8.13
2019-02-12T10:10:23.694Z,7.00
2019-02-12T10:13:30.573Z,7.53
2019-02-12T10:16:43.104Z,6.17
2019-02-12T10:20:01.911Z,7.40
2019-02-12T10:23:23.925Z,7.30
2019-02-12T10:26:33.556Z,6.90
2019-02-12T10:29:49.151Z,7.07
2019-02-12T10:32:53.089Z,7.27
2019-02-12T10:35:57.042Z,7.40
2019-02-12T10:39:00.899Z,7.90
2019-02-12T10:42:04.711Z,8.13
2019-02-12T10:45:09.540Z,7.00
2019-02-12T10:48:13.413Z,7.73
2019-02-12T10:51:17.323Z,7.37
2019-02-12T10:54:27.749Z,9.63
2019-02-12T10:57:26.686Z,8.67
2019-02-12T11:00:30.598Z,10.40
2019-02-12T11:03:34.440Z,10.27
2019-02-12T11:06:38.331Z,7.73
2019-02-12T11:09:42.225Z,7.17
2019-02-12T11:12:46.142Z,8.07
2019-02-12T11:15:49.993Z,8.97
2019-02-12T11:18:53.864Z,9.40
2019-02-12T11:21:57.754Z,8.27
2019-02-12T11:25:01.585Z,7.63
2019-02-12T11:28:05.554Z,8.57
2019-02-12T11:31:09.406Z,8.83
2019-02-12T11:34:13.978Z,9.07
2019-02-12T11:37:17.967Z,8.30
2019-02-12T11:40:21.939Z,8.90
2019-02-12T11:43:25.834Z,9.90
2019-02-12T11:46:29.662Z,10.00
2019-02-12T11:49:33.552Z,9.60
2019-02-12T11:52:37.376Z,8.13
2019-02-12T11:55:41.276Z,8.77
2019-02-12T11:58:45.118Z,9.90
2019-02-12T12:01:48.999Z,7.20
2019-02-12T12:04:52.889Z,7.83
2019-02-12T12:07:56.713Z,8.47
2019-02-12T12:11:00.645Z,7.87
2019-02-12T12:14:04.549Z,4.23
2019-02-12T12:17:08.439Z,7.97
2019-02-12T12:20:14.020Z,8.50
2019-02-12T12:23:17.920Z,8.50
2019-02-12T12:26:21.795Z,10.53
2019-02-12T12:29:25.715Z,9.40
2019-02-12T12:32:29.663Z,9.70
2019-02-12T12:35:33.542Z,9.50
2019-02-12T12:38:37.407Z,8.43
2019-02-12T12:41:42.759Z,8.40
2019-02-12T12:44:46.937Z,6.33
2019-02-12T12:47:50.785Z,8.10
2019-02-12T12:50:54.639Z,6.73
2019-02-12T12:53:58.522Z,7.13
2019-02-12T12:57:02.412Z,7.37
2019-02-12T13:00:12.207Z,8.20
2019-02-12T13:03:16.088Z,8.97
2019-02-12T13:06:19.991Z,10.33
2019-02-12T13:09:23.841Z,9.73
2019-02-12T13:12:27.742Z,8.77
2019-02-12T13:15:31.688Z,9.40
2019-02-12T13:18:35.508Z,10.40
2019-02-12T13:21:39.400Z,9.40
2019-02-12T13:24:43.246Z,9.50
2019-02-12T13:27:47.169Z,7.70
2019-02-12T13:30:51.031Z,10.47
2019-02-12T13:33:55.064Z,12.87
2019-02-12T13:36:58.937Z,10.73
2019-02-12T13:40:02.790Z,9.33
2019-02-12T13:43:06.669Z,12.33
2019-02-12T13:46:10.518Z,14.57
2019-02-12T13:49:14.420Z,14.20
2019-02-12T13:52:18.414Z,16.90
2019-02-12T13:55:22.711Z,10.80
2019-02-12T13:58:26.669Z,11.60
2019-02-12T14:01:30.532Z,9.93
2019-02-12T14:04:34.413Z,11.07
2019-02-12T14:07:38.338Z,9.90
2019-02-12T14:10:42.154Z,11.33
2019-02-12T14:13:46.076Z,10.40
2019-02-12T14:16:49.882Z,11.53
2019-02-12T14:19:53.843Z,10.67
2019-02-12T14:22:57.654Z,10.80
2019-02-12T14:26:01.538Z,11.00
2019-02-12T14:29:05.394Z,11.43
2019-02-12T14:32:09.293Z,11.20
2019-02-12T14:35:13.450Z,9.20
2019-02-12T14:38:17.345Z,11.63
2019-02-12T14:41:21.284Z,11.80
2019-02-12T14:44:25.154Z,9.47
2019-02-12T14:47:29.185Z,9.37
2019-02-12T14:50:33.024Z,11.33
2019-02-12T14:53:36.955Z,11.00
2019-02-12T14:56:40.833Z,11.43
2019-02-12T14:59:44.710Z,11.73
2019-02-12T15:02:48.540Z,11.73
2019-02-12T15:05:52.484Z,13.30
2019-02-12T15:08:56.495Z,13.80
2019-02-12T15:12:00.413Z,13.10
2019-02-12T15:15:05.414Z,12.37
2019-02-12T15:18:09.258Z,12.07
2019-02-12T15:21:13.549Z,12.57
2019-02-12T15:24:17.624Z,11.53
2019-02-12T15:27:21.529Z,12.47
2019-02-12T15:30:25.424Z,12.67
2019-02-12T15:33:29.372Z,10.87
2019-02-12T15:36:33.271Z,7.63
2019-02-12T15:39:37.114Z,11.67
2019-02-12T15:42:41.071Z,12.53
2019-02-12T15:45:45.075Z,13.03
2019-02-12T15:48:48.996Z,12.13
2019-02-12T15:51:52.850Z,12.33
2019-02-12T15:54:56.705Z,12.57
2019-02-12T15:58:00.561Z,11.57
2019-02-12T16:01:06.034Z,10.63
2019-02-12T16:04:10.033Z,12.67
2019-02-12T16:07:13.909Z,15.10
2019-02-12T16:10:21.914Z,17.03
2019-02-12T16:13:25.785Z,17.03
2019-02-12T16:16:30.145Z,14.10
2019-02-12T16:19:35.214Z,12.17
2019-02-12T16:22:39.051Z,32.37
2019-02-12T16:25:42.935Z,38.40
2019-02-12T16:28:46.838Z,21.20
2019-02-12T16:31:50.746Z,17.87
2019-02-12T16:34:54.665Z,20.30
2019-02-12T16:37:58.465Z,21.50
2019-02-12T16:41:02.375Z,17.53
2019-02-12T16:44:06.205Z,18.17
2019-02-12T16:47:10.123Z,17.80
2019-02-12T16:50:14.187Z,16.37
2019-02-12T16:53:18.060Z,25.33
2019-02-12T16:56:21.976Z,36.97
2019-02-12T16:59:26.115Z,20.53
2019-02-12T17:02:30.045Z,39.53
2019-02-12T17:05:33.915Z,24.57
2019-02-12T17:08:37.816Z,19.17
2019-02-12T17:11:41.804Z,24.33
2019-02-12T17:14:45.679Z,18.80
2019-02-12T17:17:49.556Z,24.87
2019-02-12T17:20:53.451Z,24.27
2019-02-12T17:23:57.283Z,45.47
2019-02-12T17:27:01.184Z,15.17
2019-02-12T17:30:08.205Z,17.03
2019-02-12T17:33:12.073Z,15.70
2019-02-12T17:36:15.974Z,19.20
2019-02-12T17:39:19.958Z,17.30
2019-02-12T17:42:24.024Z,18.93
2019-02-12T17:45:27.916Z,19.47
2019-02-12T17:48:31.805Z,18.00
2019-02-12T17:51:35.768Z,19.20
2019-02-12T17:54:39.601Z,18.47
2019-02-12T17:57:43.505Z,17.83
2019-02-12T18:00:47.444Z,27.40
2019-02-12T18:03:53.845Z,17.53
2019-02-12T18:06:57.687Z,19.83
2019-02-12T18:10:01.632Z,22.07
2019-02-12T18:13:05.459Z,24.53
2019-02-12T18:16:09.352Z,24.00
2019-02-12T18:19:13.348Z,19.40
2019-02-12T18:22:17.269Z,17.10
2019-02-12T18:25:21.111Z,18.10
2019-02-12T18:28:25.014Z,20.30
2019-02-12T18:31:28.929Z,45.00
2019-02-12T18:34:32.834Z,25.37
2019-02-12T18:37:36.680Z,19.33
2019-02-12T18:40:40.712Z,48.30
2019-02-12T18:43:44.623Z,34.07
2019-02-12T18:46:48.497Z,18.63
2019-02-12T18:49:52.486Z,36.10
2019-02-12T18:52:56.636Z,20.03
2019-02-12T18:56:00.630Z,20.03
2019-02-12T18:59:04.529Z,36.53
2019-02-12T19:02:08.529Z,23.97
2019-02-12T19:05:12.570Z,38.87
2019-02-12T19:08:16.461Z,29.40
2019-02-12T19:11:20.333Z,26.10
2019-02-12T19:14:24.232Z,30.37
2019-02-12T19:17:28.196Z,22.20
2019-02-12T19:20:32.158Z,23.10
2019-02-12T19:23:36.068Z,20.67
2019-02-12T19:26:39.955Z,18.50
2019-02-12T19:29:43.864Z,20.03
2019-02-12T19:32:47.736Z,18.63
2019-02-12T19:35:51.619Z,17.13
2019-02-12T19:38:55.560Z,18.93
2019-02-12T19:41:59.560Z,17.47
2019-02-12T19:45:03.674Z,16.83
2019-02-12T19:48:07.557Z,16.30
2019-02-12T19:51:11.511Z,16.27
2019-02-12T19:54:15.475Z,16.23
2019-02-12T19:57:19.585Z,14.83
2019-02-12T20:00:23.517Z,14.73
2019-02-12T20:03:27.498Z,14.50
2019-02-12T20:06:31.450Z,15.57
2019-02-12T20:09:36.496Z,15.33
2019-02-12T20:12:40.568Z,18.07
2019-02-12T20:15:44.559Z,16.50
2019-02-12T20:18:48.495Z,16.97
2019-02-12T20:21:52.474Z,18.53
2019-02-12T20:24:56.384Z,17.13
2019-02-12T20:28:00.502Z,16.43
2019-02-12T20:31:04.510Z,14.10
2019-02-12T20:34:08.494Z,13.80
2019-02-12T20:37:12.426Z,14.20
2019-02-12T20:40:16.353Z,15.27
2019-02-12T20:43:20.339Z,14.87
2019-02-12T20:46:24.218Z,14.13
2019-02-12T20:49:28.178Z,15.73
2019-02-12T20:52:33.569Z,18.30
2019-02-12T20:55:37.561Z,18.13
2019-02-12T20:58:41.521Z,18.03
2019-02-12T21:01:45.422Z,17.27
2019-02-12T21:04:50.850Z,18.67
2019-02-12T21:07:54.796Z,17.63
2019-02-12T21:10:58.644Z,16.57
2019-02-12T21:14:02.683Z,16.57
2019-02-12T21:17:06.546Z,18.00
2019-02-12T21:20:11.533Z,17.43
2019-02-12T21:23:15.488Z,17.90
2019-02-12T21:26:19.523Z,15.10
2019-02-12T21:29:23.404Z,17.83
2019-02-12T21:32:27.285Z,17.67
2019-02-12T21:35:31.285Z,13.03
2019-02-12T21:38:35.205Z,16.77
2019-02-12T21:41:39.203Z,15.67
2019-02-12T21:44:43.096Z,16.10
2019-02-12T21:47:47.018Z,16.43
2019-02-12T21:50:50.899Z,17.13
2019-02-12T21:53:54.859Z,16.80
2019-02-12T21:56:58.911Z,17.03
2019-02-12T22:00:02.798Z,15.73
2019-02-12T22:03:06.729Z,16.07
2019-02-12T22:06:10.600Z,14.57
2019-02-12T22:09:14.467Z,14.57
2019-02-12T22:12:18.339Z,15.87
2019-02-12T22:15:22.249Z,16.93
2019-02-12T22:18:26.113Z,16.17
2019-02-12T22:21:29.995Z,16.87
2019-02-12T22:24:33.867Z,18.07
2019-02-12T22:27:40.495Z,18.20
2019-02-12T22:30:43.249Z,17.73
2019-02-12T22:33:47.130Z,19.10
2019-02-12T22:36:50.955Z,18.60
2019-02-12T22:39:54.849Z,16.87
2019-02-12T22:42:58.651Z,17.80
2019-02-12T22:46:03.960Z,16.70
2019-02-12T22:49:07.965Z,17.57
2019-02-12T22:52:11.870Z,17.83
2019-02-12T22:55:15.914Z,19.43
2019-02-12T22:58:19.775Z,21.03
2019-02-12T23:01:25.271Z,21.00
2019-02-12T23:04:29.074Z,21.23
2019-02-12T23:07:32.980Z,20.57
2019-02-12T23:10:36.808Z,22.53
2019-02-12T23:13:40.680Z,23.13
2019-02-12T23:16:44.575Z,24.20
2019-02-12T23:19:48.431Z,25.57
2019-02-12T23:22:52.311Z,23.97
2019-02-12T23:25:56.140Z,23.20
2019-02-12T23:29:00.007Z,21.93
2019-02-12T23:32:03.847Z,22.60
2019-02-12T23:35:07.736Z,21.90
2019-02-12T23:38:11.633Z,21.53
2019-02-12T23:41:15.482Z,22.27
2019-02-12T23:44:19.362Z,22.80
2019-02-12T23:47:23.214Z,20.90
2019-02-12T23:50:27.077Z,21.17
2019-02-12T23:53:30.911Z,20.97
2019-02-12T23:56:34.798Z,21.03
2019-02-12T23:59:38.654Z,21.90
